Time;durP1;ratioP1;P1;durP2;ratioP2;P2;SDS_P1;SDS_P2;PMS_P1;PMS_P2;Temp;Humidity;BMP_temperature;BMP_pressure;BME280_temperature;BME280_humidity;BME280_pressure;Samples;Min_cycle;Max_cycle;Signal;HPM_P1;HPM_P2
2023/06/15 00:01:21;;;;;;;;;;;;;;;24.88;36.13;101108.25;2294200;76;51441;-74
2023/06/15 00:04:22;;;;;;;;;;;;;;;24.89;36.18;101104.52;2322942;76;50704;-75
2023/06/15 00:07:24;;;;;;;;;;;;;;;24.88;36.40;101106.90;2294241;76;51616;-74
2023/06/15 00:10:26;;;;;;;;;;;;;;;24.88;36.21;101105.55;2293632;76;51928;-74
2023/06/15 00:13:27;;;;;;;;;;;;;;;24.88;36.24;101110.95;2322556;76;50741;-74
2023/06/15 00:16:31;;;;;;;;;;;;;;;24.87;36.19;101109.31;2322360;76;51286;-75
2023/06/15 00:19:33;;;;;;;;;;;;;;;24.88;36.17;101110.95;2322547;76;50431;-75
2023/06/15 00:22:38;;;;;;;;;;;;;;;24.86;36.20;101099.51;2265302;77;50904;-75
2023/06/15 00:25:40;;;;;;;;;;;;;;;24.87;36.19;101104.42;2264157;76;22682;-74
2023/06/15 00:32:01;;;;;;;;;;;;;;;24.86;36.07;101110.33;2322474;76;22346;-73
2023/06/15 00:35:02;;;;;;;;;;;;;;;24.85;36.16;101108.69;2293216;76;51004;-73
2023/06/15 00:38:04;;;;;;;;;;;;;;;24.85;36.15;101099.21;2293143;76;51615;-73
2023/06/15 00:41:06;;;;;;;;;;;;;;;24.85;36.00;101105.98;2322258;76;51395;-72
2023/06/15 00:44:08;;;;;;;;;;;;;;;24.83;35.99;101099.94;2293569;76;51542;-74
2023/06/15 00:47:09;;;;;;;;;;;;;;;24.83;35.94;101096.41;2293176;76;50111;-72
2023/06/15 00:50:14;;;;;;;;;;;;;;;24.84;35.93;101102.98;2322268;75;50080;-72
2023/06/15 00:53:14;;;;;;;;;;;;;;;24.82;35.85;101099.64;2293939;76;22451;-72
2023/06/15 00:56:21;;;;;;;;;;;;;;;24.83;36.20;101102.65;2322115;75;50116;-73
2023/06/15 00:59:19;;;;;;;;;;;;;;;24.83;36.34;101101.30;2313472;76;22398;-73
2023/06/15 01:02:24;;;;;;;;;;;;;;;24.83;36.25;101102.65;2293349;76;49996;-74
2023/06/15 01:05:24;;;;;;;;;;;;;;;24.84;36.42;101103.47;2322136;76;22356;-73
2023/06/15 01:08:26;;;;;;;;;;;;;;;24.83;36.30;101099.12;2322174;76;51440;-74
2023/06/15 01:11:29;;;;;;;;;;;;;;;24.82;36.35;101094.23;2292742;76;51163;-74
2023/06/15 01:14:31;;;;;;;;;;;;;;;24.83;36.23;101103.17;2322488;76;50755;-73
2023/06/15 01:17:33;;;;;;;;;;;;;;;24.82;36.32;101102.35;2322052;76;51319;-73
2023/06/15 01:20:44;;;;;;;;;;;;;;;24.83;36.43;101103.17;2322196;76;51321;-74
2023/06/15 01:23:50;;;;;;;;;;;;;;;24.82;36.47;101103.70;2320329;76;23168;-74
2023/06/15 01:26:53;;;;;;;;;;;;;;;24.83;36.48;101105.88;2307880;76;22242;-73
2023/06/15 01:29:55;;;;;;;;;;;;;;;24.82;36.44;101105.06;2317382;76;51457;-74
2023/06/15 01:32:56;;;;;;;;;;;;;;;24.82;36.49;101105.59;2322541;76;51440;-73
2023/06/15 01:35:58;;;;;;;;;;;;;;;24.81;36.53;101103.91;2293049;76;52266;-74
2023/06/15 01:39:00;;;;;;;;;;;;;;;24.81;36.56;101105.26;2293570;76;50722;-74
2023/06/15 01:42:01;;;;;;;;;;;;;;;24.80;36.65;101099.02;2322561;76;51543;-73
2023/06/15 01:45:03;;;;;;;;;;;;;;;24.80;36.52;101094.96;2322594;76;51478;-74
2023/06/15 01:48:05;;;;;;;;;;;;;;;24.81;36.88;101095.78;2293261;76;52472;-73
2023/06/15 01:51:06;;;;;;;;;;;;;;;24.81;36.84;101096.61;2322472;76;50596;-72
2023/06/15 01:54:08;;;;;;;;;;;;;;;24.80;36.71;101092.78;2322231;76;50626;-73
2023/06/15 01:57:10;;;;;;;;;;;;;;;24.80;36.62;101092.78;2322069;75;51460;-73
2023/06/15 02:00:12;;;;;;;;;;;;;;;24.81;36.54;101098.49;2242624;78;51208;-73
2023/06/15 02:03:13;;;;;;;;;;;;;;;24.79;36.44;101089.25;2241213;78;51438;-74
2023/06/15 02:06:15;;;;;;;;;;;;;;;24.77;36.55;101086.75;2259539;77;51416;-74
2023/06/15 02:09:16;;;;;;;;;;;;;;;24.76;36.53;101086.45;2259776;77;51395;-74
2023/06/15 02:12:18;;;;;;;;;;;;;;;24.76;36.37;101081.53;2241407;78;51448;-74
2023/06/15 02:15:20;;;;;;;;;;;;;;;24.76;36.32;101086.95;2259793;78;50890;-74
2023/06/15 02:18:21;;;;;;;;;;;;;;;24.76;36.47;101081.53;2259699;77;51508;-75
2023/06/15 02:21:23;;;;;;;;;;;;;;;24.75;36.54;101082.06;2259735;77;51476;-74
2023/06/15 02:24:24;;;;;;;;;;;;;;;24.75;36.45;101081.23;2241938;78;51648;-75
2023/06/15 02:27:26;;;;;;;;;;;;;;;24.76;36.55;101080.18;2283638;76;51686;-74
2023/06/15 02:30:28;;;;;;;;;;;;;;;24.76;36.53;101077.48;2322999;76;51425;-75
2023/06/15 02:33:29;;;;;;;;;;;;;;;24.75;36.40;101081.23;2323513;76;51594;-75
2023/06/15 02:36:31;;;;;;;;;;;;;;;24.73;36.39;101079.27;2294478;76;51648;-74
2023/06/15 02:39:32;;;;;;;;;;;;;;;24.74;36.44;101078.23;2322829;76;50248;-74
2023/06/15 02:42:35;;;;;;;;;;;;;;;24.75;36.33;101078.53;2293610;76;49999;-74
2023/06/15 02:45:36;;;;;;;;;;;;;;;24.74;36.31;101079.59;2322774;76;51402;-74
2023/06/15 02:48:38;;;;;;;;;;;;;;;24.75;36.31;101078.53;2295418;76;52604;-74
2023/06/15 02:51:40;;;;;;;;;;;;;;;24.74;36.43;101077.70;2296733;76;50658;-75
2023/06/15 02:54:42;;;;;;;;;;;;;;;24.74;36.39;101082.30;2324272;76;50637;-74
2023/06/15 02:57:44;;;;;;;;;;;;;;;24.73;36.31;101082.80;2315194;75;51668;-73
2023/06/15 03:00:51;;;;;;;;;;;;;;;24.72;36.25;101085.73;2295419;76;51640;-74
2023/06/15 03:03:49;;;;;;;;;;;;;;;24.73;36.32;101086.03;2295488;76;22799;-74
2023/06/15 03:06:50;;;;;;;;;;;;;;;24.71;36.19;101080.84;2324507;76;50635;-74
2023/06/15 03:09:52;;;;;;;;;;;;;;;24.70;36.36;101076.98;2322470;76;50303;-75
2023/06/15 03:12:53;;;;;;;;;;;;;;;24.73;36.34;101080.61;2293347;76;51528;-74
2023/06/15 03:15:55;;;;;;;;;;;;;;;24.72;36.28;101083.02;2293392;76;50314;-74
2023/06/15 03:18:57;;;;;;;;;;;;;;;24.71;36.22;101084.05;2322101;76;51515;-75
2023/06/15 03:22:00;;;;;;;;;;;;;;;24.71;36.19;101089.46;2322093;76;51490;-75
2023/06/15 03:25:03;;;;;;;;;;;;;;;24.70;36.13;101080.52;2268277;76;51687;-75
2023/06/15 03:28:04;;;;;;;;;;;;;;;24.70;36.10;101085.11;2294345;76;50290;-75
2023/06/15 03:31:07;;;;;;;;;;;;;;;24.69;36.06;101082.11;2322135;76;49974;-74
2023/06/15 03:34:09;;;;;;;;;;;;;;;24.69;36.06;101082.11;2322165;76;51538;-75
2023/06/15 03:37:11;;;;;;;;;;;;;;;24.68;35.95;101087.19;2267802;76;51331;-75
2023/06/15 03:40:13;;;;;;;;;;;;;;;24.67;35.94;101083.66;2293517;75;50288;-73
2023/06/15 03:43:14;;;;;;;;;;;;;;;24.67;35.92;101093.12;2289864;76;51496;-75
2023/06/15 03:46:16;;;;;;;;;;;;;;;24.67;36.05;101089.07;2322020;76;50720;-73
2023/06/15 03:49:18;;;;;;;;;;;;;;;24.67;36.14;101082.83;2293101;76;52546;-73
2023/06/15 03:52:19;;;;;;;;;;;;;;;24.67;36.20;101095.01;2293418;76;51506;-74
2023/06/15 03:55:21;;;;;;;;;;;;;;;24.67;36.11;101093.12;2293267;76;51960;-74
2023/06/15 03:58:24;;;;;;;;;;;;;;;24.67;36.11;101091.77;2322104;76;51541;-74
2023/06/15 04:01:26;;;;;;;;;;;;;;;24.68;36.07;101093.95;2322352;76;22444;-74
2023/06/15 04:04:27;;;;;;;;;;;;;;;24.67;36.05;101086.36;2322165;76;51471;-74
2023/06/15 04:07:29;;;;;;;;;;;;;;;24.67;36.13;101092.30;2321946;76;51478;-74
2023/06/15 04:10:31;;;;;;;;;;;;;;;24.68;36.07;101087.19;2322290;76;50660;-74
2023/06/15 04:13:32;;;;;;;;;;;;;;;24.66;36.10;101082.50;2289604;76;52566;-74
2023/06/15 04:16:34;;;;;;;;;;;;;;;24.67;36.05;101092.30;2292994;76;50797;-74
2023/06/15 04:19:36;;;;;;;;;;;;;;;24.67;36.05;101089.07;2322013;76;50264;-74
2023/06/15 04:22:37;;;;;;;;;;;;;;;24.68;36.06;101100.72;2293044;76;50655;-74
2023/06/15 04:25:40;;;;;;;;;;;;;;;24.68;36.10;101104.25;2267569;76;52388;-73
2023/06/15 04:28:45;;;;;;;;;;;;;;;24.69;36.14;101099.69;2321901;76;51550;-73
2023/06/15 04:31:46;;;;;;;;;;;;;;;24.69;36.17;101092.93;2293812;76;23296;-74
2023/06/15 04:34:49;;;;;;;;;;;;;;;24.70;36.22;101094.58;2322104;76;51614;-75
2023/06/15 04:37:52;;;;;;;;;;;;;;;24.70;36.31;101090.52;2267997;76;51224;-74
2023/06/15 04:40:54;;;;;;;;;;;;;;;24.71;36.30;101093.52;2322150;76;50715;-74
2023/06/15 04:43:56;;;;;;;;;;;;;;;24.72;36.29;101088.44;2293844;76;50334;-74
2023/06/15 04:46:57;;;;;;;;;;;;;;;24.72;36.34;101093.32;2321920;76;50250;-73
2023/06/15 04:49:59;;;;;;;;;;;;;;;24.71;36.49;101098.94;2322049;75;50377;-75
2023/06/15 04:53:01;;;;;;;;;;;;;;;24.72;36.44;101097.38;2293224;76;51657;-73
2023/06/15 04:56:02;;;;;;;;;;;;;;;24.73;36.79;101099.56;2293043;75;51375;-73
2023/06/15 04:59:04;;;;;;;;;;;;;;;24.75;36.92;101094.77;2293049;76;51535;-74
2023/06/15 05:02:07;;;;;;;;;;;;;;;24.83;36.88;101097.77;2267892;75;52523;-74
2023/06/15 05:05:09;;;;;;;;;;;;;;;24.85;36.93;101101.92;2293311;76;50753;-74
2023/06/15 05:08:13;;;;;;;;;;;;;;;24.90;36.89;101108.05;2322026;75;51520;-75
2023/06/15 05:11:15;;;;;;;;;;;;;;;24.95;36.86;101109.06;2322310;75;51516;-75
2023/06/15 05:14:17;;;;;;;;;;;;;;;25.01;36.69;101107.37;2293079;76;51153;-75
2023/06/15 05:17:19;;;;;;;;;;;;;;;24.99;36.54;101102.16;2292755;76;50616;-74
2023/06/15 05:20:21;;;;;;;;;;;;;;;24.97;36.35;101108.83;2293260;76;50314;-74
2023/06/15 05:23:23;;;;;;;;;;;;;;;24.99;36.43;101116.22;2322042;76;51562;-74
2023/06/15 05:26:25;;;;;;;;;;;;;;;25.02;36.24;101117.67;2267644;76;52594;-74
2023/06/15 05:29:27;;;;;;;;;;;;;;;24.98;36.20;101112.69;2322106;76;50030;-74
2023/06/15 05:32:29;;;;;;;;;;;;;;;24.94;36.27;101111.97;2322016;76;51546;-75
2023/06/15 05:35:30;;;;;;;;;;;;;;;24.94;36.40;101114.15;2322007;76;50248;-76
2023/06/15 05:38:32;;;;;;;;;;;;;;;24.95;36.38;101118.53;2267588;76;52353;-75
2023/06/15 05:41:34;;;;;;;;;;;;;;;24.94;36.33;101114.15;2287639;76;50399;-75
2023/06/15 05:44:35;;;;;;;;;;;;;;;24.94;36.37;101119.56;2290937;76;51448;-76
2023/06/15 05:47:37;;;;;;;;;;;;;;;24.96;36.42;101126.13;2293009;76;51449;-74
2023/06/15 05:50:38;;;;;;;;;;;;;;;24.95;36.51;101116.36;2293074;76;52357;-75
2023/06/15 05:53:40;;;;;;;;;;;;;;;24.97;36.59;101126.42;2322001;76;51393;-78
2023/06/15 05:56:42;;;;;;;;;;;;;;;25.01;36.63;101124.97;2321802;76;50670;-78
2023/06/15 05:59:47;;;;;;;;;;;;;;;25.10;36.56;101133.67;2322114;75;50715;-77
2023/06/15 06:02:47;;;;;;;;;;;;;;;25.15;36.51;101133.36;2293468;75;22410;-76
2023/06/15 06:05:49;;;;;;;;;;;;;;;25.21;36.47;101133.05;2291536;75;50669;-76
2023/06/15 06:08:50;;;;;;;;;;;;;;;25.26;36.35;101131.87;2292485;76;51776;-76
2023/06/15 06:11:52;;;;;;;;;;;;;;;25.28;36.33;101134.34;2288670;76;51464;-76
2023/06/15 06:14:53;;;;;;;;;;;;;;;25.29;36.16;101136.02;2290564;76;51231;-76
2023/06/15 06:17:55;;;;;;;;;;;;;;;25.28;36.14;101130.28;2292924;76;49913;-76
2023/06/15 06:20:56;;;;;;;;;;;;;;;25.28;36.15;101131.64;2281808;76;50412;-76
2023/06/15 06:23:58;;;;;;;;;;;;;;;25.27;36.10;101130.81;2292960;76;50667;-76
2023/06/15 06:27:00;;;;;;;;;;;;;;;25.26;36.05;101131.05;2265599;76;51609;-77
2023/06/15 06:30:02;;;;;;;;;;;;;;;25.24;36.16;101132.61;2293796;75;50882;-77
2023/06/15 06:33:04;;;;;;;;;;;;;;;25.24;36.27;101131.25;2293839;76;51423;-76
2023/06/15 06:36:08;;;;;;;;;;;;;;;25.23;36.29;101123.33;2267906;76;51150;-75
2023/06/15 06:39:09;;;;;;;;;;;;;;;25.25;36.29;101132.91;2321969;75;22404;-75
2023/06/15 06:42:12;;;;;;;;;;;;;;;25.25;36.19;101130.19;2322691;75;50608;-76
2023/06/15 06:45:13;;;;;;;;;;;;;;;25.23;36.19;101135.02;2298235;76;50325;-76
2023/06/15 06:48:15;;;;;;;;;;;;;;;25.21;36.23;101137.11;2278641;76;50240;-75
2023/06/15 06:51:16;;;;;;;;;;;;;;;25.21;36.23;101139.81;2278936;77;51161;-76
2023/06/15 06:54:18;;;;;;;;;;;;;;;25.22;36.30;101132.52;2298146;77;50726;-75
2023/06/15 06:57:20;;;;;;;;;;;;;;;25.20;36.38;101136.28;2297989;77;50395;-76
2023/06/15 07:00:22;;;;;;;;;;;;;;;25.24;36.40;101131.78;2279159;77;50008;-75
2023/06/15 07:03:24;;;;;;;;;;;;;;;25.28;36.39;101130.28;2254201;77;52394;-76
2023/06/15 07:06:25;;;;;;;;;;;;;;;25.31;36.38;101126.64;2279505;77;50285;-75
2023/06/15 07:09:27;;;;;;;;;;;;;;;25.36;36.27;101127.34;2279409;76;49760;-75
2023/06/15 07:12:28;;;;;;;;;;;;;;;25.40;36.19;101125.31;2285259;76;50619;-76
2023/06/15 07:15:31;;;;;;;;;;;;;;;25.47;36.11;101120.41;2322917;76;50631;-76
2023/06/15 07:18:33;;;;;;;;;;;;;;;25.52;35.94;101125.47;2294192;76;50447;-75
2023/06/15 07:21:35;;;;;;;;;;;;;;;25.57;35.86;101124.83;2293822;76;51639;-76
2023/06/15 07:24:37;;;;;;;;;;;;;;;25.60;35.78;101120.31;2322773;76;51499;-75
2023/06/15 07:27:38;;;;;;;;;;;;;;;25.62;35.73;101122.29;2293279;76;51164;-76
2023/06/15 07:30:40;;;;;;;;;;;;;;;25.66;35.63;101128.91;2322608;76;50243;-76
2023/06/15 07:33:42;;;;;;;;;;;;;;;25.68;35.48;101119.22;2294435;76;51526;-76
2023/06/15 07:36:44;;;;;;;;;;;;;;;25.68;35.58;101126.00;2294335;76;51446;-76
2023/06/15 07:39:46;;;;;;;;;;;;;;;25.69;35.50;101127.15;2323364;76;51533;-76
2023/06/15 07:42:48;;;;;;;;;;;;;;;25.68;35.41;101130.89;2278181;75;51676;-76
2023/06/15 07:45:49;;;;;;;;;;;;;;;25.68;35.51;101123.29;2279508;77;51551;-76
2023/06/15 07:48:51;;;;;;;;;;;;;;;25.68;35.46;101123.29;2298502;76;51535;-76
2023/06/15 07:51:52;;;;;;;;;;;;;;;25.69;35.47;101114.09;2298727;76;51403;-76
2023/06/15 07:54:54;;;;;;;;;;;;;;;25.68;35.46;101120.58;2254728;77;51487;-76
2023/06/15 07:57:56;;;;;;;;;;;;;;;25.67;35.38;101120.28;2298372;76;50663;-76
2023/06/15 08:00:57;;;;;;;;;;;;;;;25.62;35.34;101118.22;2298567;76;51504;-76
2023/06/15 08:04:00;;;;;;;;;;;;;;;25.58;35.43;101120.52;2298774;76;51545;-76
2023/06/15 08:07:01;;;;;;;;;;;;;;;25.53;35.53;101123.05;2254649;77;51245;-76
2023/06/15 08:10:03;;;;;;;;;;;;;;;25.54;35.65;101120.67;2281715;75;50349;-76
2023/06/15 08:13:06;;;;;;;;;;;;;;;25.54;35.71;101119.84;2315094;76;50753;-76
2023/06/15 08:16:08;;;;;;;;;;;;;;;25.53;35.73;101118.16;2323325;76;51527;-76
2023/06/15 08:19:10;;;;;;;;;;;;;;;25.53;35.80;101120.34;2323509;76;50475;-76
2023/06/15 08:22:11;;;;;;;;;;;;;;;25.53;35.82;101118.16;2294639;76;50598;-76
2023/06/15 08:25:13;;;;;;;;;;;;;;;25.56;35.82;101116.37;2323760;76;50639;-77
2023/06/15 08:28:14;;;;;;;;;;;;;;;25.56;35.68;101119.08;2294317;76;50620;-76
2023/06/15 08:31:16;;;;;;;;;;;;;;;25.52;35.71;101125.47;2268923;76;50937;-76
2023/06/15 08:34:18;;;;;;;;;;;;;;;25.50;35.75;101116.72;2294873;76;51642;-76
2023/06/15 08:37:19;;;;;;;;;;;;;;;25.51;35.79;101117.55;2323707;76;50619;-76
2023/06/15 08:40:21;;;;;;;;;;;;;;;25.48;35.87;101117.98;2324063;75;51496;-76
2023/06/15 08:43:22;;;;;;;;;;;;;;;25.48;35.91;101112.57;2290611;76;51578;-76
2023/06/15 08:46:24;;;;;;;;;;;;;;;25.48;35.95;101116.63;2293823;76;50702;-76
2023/06/15 08:49:26;;;;;;;;;;;;;;;25.47;35.97;101116.34;2322724;76;51536;-76
2023/06/15 08:52:28;;;;;;;;;;;;;;;25.46;35.97;101108.74;2322948;76;50799;-76
2023/06/15 08:55:30;;;;;;;;;;;;;;;25.47;36.01;101104.15;2293973;76;51685;-75
2023/06/15 08:58:32;;;;;;;;;;;;;;;25.45;36.03;101103.53;2322573;76;50372;-75
2023/06/15 09:01:33;;;;;;;;;;;;;;;25.44;36.05;101102.70;2323149;76;50832;-75
2023/06/15 09:04:35;;;;;;;;;;;;;;;25.44;36.09;101104.06;2323137;76;50285;-75
2023/06/15 09:07:36;;;;;;;;;;;;;;;25.43;36.15;101102.38;2293670;76;52425;-76
2023/06/15 09:10:40;;;;;;;;;;;;;;;25.43;36.16;101105.09;2294292;75;50288;-76
2023/06/15 09:13:41;;;;;;;;;;;;;;;25.40;36.18;101095.52;2314585;76;21744;-76
2023/06/15 09:16:43;;;;;;;;;;;;;;;25.39;36.23;101103.35;2293640;76;50668;-76
2023/06/15 09:19:45;;;;;;;;;;;;;;;25.39;36.20;101097.11;2322825;76;51425;-76
2023/06/15 09:22:47;;;;;;;;;;;;;;;25.37;36.25;101093.25;2322672;76;50799;-76
2023/06/15 09:25:52;;;;;;;;;;;;;;;25.38;36.27;101092.22;2322736;76;50311;-76
2023/06/15 09:28:57;;;;;;;;;;;;;;;25.37;36.29;101093.78;2322736;76;50472;-76
2023/06/15 09:32:01;;;;;;;;;;;;;;;25.38;36.22;101090.87;2268765;76;51055;-76
2023/06/15 09:35:04;;;;;;;;;;;;;;;25.37;36.25;101097.31;2322785;76;50332;-76
2023/06/15 09:38:05;;;;;;;;;;;;;;;25.35;36.24;101084.50;2294573;76;50648;-76
2023/06/15 09:41:07;;;;;;;;;;;;;;;25.35;36.27;101080.44;2294122;76;51485;-76
2023/06/15 09:44:09;;;;;;;;;;;;;;;25.33;36.25;101088.48;2265283;76;51660;-76
2023/06/15 09:47:17;;;;;;;;;;;;;;;25.33;36.22;101085.77;2322394;75;50882;-75
2023/06/15 09:50:19;;;;;;;;;;;;;;;25.32;36.26;101083.59;2322500;76;51581;-76
2023/06/15 09:53:21;;;;;;;;;;;;;;;25.33;36.22;101089.33;2293942;76;51547;-75
2023/06/15 09:56:22;;;;;;;;;;;;;;;25.29;36.29;101098.93;2293630;76;51399;-75
2023/06/15 09:59:24;;;;;;;;;;;;;;;25.28;36.28;101088.30;2322973;76;51384;-75
2023/06/15 10:02:26;;;;;;;;;;;;;;;25.28;36.18;101087.80;2294340;76;50754;-75
2023/06/15 10:05:29;;;;;;;;;;;;;;;25.27;36.25;101090.72;2294193;76;50450;-75
2023/06/15 10:08:31;;;;;;;;;;;;;;;25.26;36.18;101093.12;2293726;76;51241;-75
2023/06/15 10:11:35;;;;;;;;;;;;;;;25.24;36.17;101093.86;2323315;76;51513;-76
2023/06/15 10:14:38;;;;;;;;;;;;;;;25.24;36.12;101096.04;2322981;76;50342;-76
2023/06/15 10:17:40;;;;;;;;;;;;;;;25.25;36.08;101094.98;2321624;76;50264;-76
2023/06/15 10:20:42;;;;;;;;;;;;;;;25.25;36.04;101094.16;2294216;76;52774;-77
2023/06/15 10:23:44;;;;;;;;;;;;;;;25.21;36.01;101091.06;2294666;76;51507;-75
2023/06/15 10:26:45;;;;;;;;;;;;;;;25.21;35.98;101101.89;2322903;76;51441;-76
2023/06/15 10:30:07;;;;;;;;;;;;;;;25.20;35.99;101102.42;2323266;76;52413;-75
2023/06/15 10:33:13;;;;;;;;;;;;;;;25.19;35.98;101096.69;2323108;76;50306;-76
2023/06/15 10:36:19;;;;;;;;;;;;;;;25.22;35.95;101108.96;2321815;76;50507;-77
2023/06/15 10:39:22;;;;;;;;;;;;;;;25.22;35.90;101100.02;2323069;76;51343;-76
2023/06/15 10:42:23;;;;;;;;;;;;;;;25.21;35.90;101105.95;2324057;75;50432;-76
2023/06/15 10:45:27;;;;;;;;;;;;;;;25.16;36.00;101095.77;2242705;78;52327;-76
2023/06/15 10:48:29;;;;;;;;;;;;;;;25.14;36.01;101088.88;2260402;77;50526;-76
2023/06/15 10:51:35;;;;;;;;;;;;;;;25.18;35.96;101087.44;2242197;78;49996;-76
2023/06/15 10:54:37;;;;;;;;;;;;;;;25.14;36.00;101087.52;2260750;77;51089;-75
2023/06/15 10:57:38;;;;;;;;;;;;;;;25.13;36.01;101090.76;2242925;78;52398;-76
2023/06/15 11:00:44;;;;;;;;;;;;;;;25.13;36.02;101095.35;2242915;78;50513;-76
2023/06/15 11:03:46;;;;;;;;;;;;;;;25.10;36.05;101091.70;2260522;77;49938;-76
2023/06/15 11:06:57;;;;;;;;;;;;;;;25.08;36.03;101097.87;2261372;78;50254;-77
2023/06/15 11:10:00;;;;;;;;;;;;;;;25.07;36.03;101088.07;2243176;75;51808;-76
2023/06/15 11:13:03;;;;;;;;;;;;;;;25.06;36.03;101085.06;2315386;76;50652;-76
2023/06/15 11:16:08;;;;;;;;;;;;;;;25.04;36.05;101088.50;2323816;76;50441;-76
2023/06/15 11:19:14;;;;;;;;;;;;;;;25.04;36.03;101085.27;2323867;76;50317;-76
2023/06/15 11:22:28;;;;;;;;;;;;;;;25.05;36.00;101089.66;2294889;76;52565;-76
2023/06/15 11:25:30;;;;;;;;;;;;;;;25.05;35.96;101088.80;2295471;76;51604;-76
2023/06/15 11:28:33;;;;;;;;;;;;;;;25.04;35.90;101086.62;2293835;76;51610;-77
2023/06/15 11:31:35;;;;;;;;;;;;;;;25.05;35.87;101084.74;2323176;76;50324;-76
2023/06/15 11:34:36;;;;;;;;;;;;;;;25.03;35.86;101079.56;2268960;76;50932;-76
2023/06/15 11:37:38;;;;;;;;;;;;;;;25.02;35.82;101076.53;2294125;76;50486;-76
2023/06/15 11:40:39;;;;;;;;;;;;;;;24.99;35.79;101071.02;2323760;75;51448;-76
2023/06/15 11:43:42;;;;;;;;;;;;;;;25.01;35.76;101075.41;2290453;76;50467;-76
2023/06/15 11:46:45;;;;;;;;;;;;;;;24.98;35.75;101066.66;2322980;76;51614;-76
2023/06/15 11:49:47;;;;;;;;;;;;;;;24.98;35.67;101066.66;2321935;76;50446;-76
2023/06/15 11:52:49;;;;;;;;;;;;;;;24.96;35.67;101070.10;2294324;76;51646;-76
2023/06/15 11:55:50;;;;;;;;;;;;;;;24.98;35.61;101059.07;2322874;76;50703;-76
2023/06/15 11:58:52;;;;;;;;;;;;;;;24.99;35.55;101062.07;2293916;76;50632;-76
2023/06/15 12:01:55;;;;;;;;;;;;;;;24.97;35.55;101058.25;2293652;76;51470;-76
2023/06/15 12:04:57;;;;;;;;;;;;;;;24.97;35.53;101057.39;2320189;76;51442;-76
2023/06/15 12:07:59;;;;;;;;;;;;;;;24.95;35.47;101054.09;2293547;76;50370;-75
2023/06/15 12:11:01;;;;;;;;;;;;;;;24.94;35.45;101045.12;2283582;76;52755;-75
2023/06/15 12:14:03;;;;;;;;;;;;;;;24.95;35.42;101043.27;2314759;76;51505;-76
2023/06/15 12:17:05;;;;;;;;;;;;;;;24.94;35.38;101043.77;2322239;76;50465;-75
2023/06/15 12:20:10;;;;;;;;;;;;;;;24.94;35.33;101035.64;2293562;76;50657;-77
2023/06/15 12:23:14;;;;;;;;;;;;;;;24.94;35.34;101038.34;2326505;75;51559;-76
2023/06/15 12:26:16;;;;;;;;;;;;;;;24.94;35.28;101036.17;2338092;75;51429;-75
2023/06/15 12:29:18;;;;;;;;;;;;;;;24.94;35.32;101026.17;2296938;76;50006;-75
2023/06/15 12:32:23;;;;;;;;;;;;;;;24.93;35.33;101031.28;2306766;76;50749;-76
2023/06/15 12:35:27;;;;;;;;;;;;;;;24.93;35.38;101021.81;2304976;76;50672;-76
2023/06/15 12:38:29;;;;;;;;;;;;;;;24.95;35.36;101014.84;2306926;76;51598;-76
2023/06/15 12:41:31;;;;;;;;;;;;;;;24.97;35.34;101013.58;2316350;75;50282;-76
2023/06/15 12:44:34;;;;;;;;;;;;;;;24.99;35.37;101012.81;2308807;76;50678;-76
2023/06/15 12:47:36;;;;;;;;;;;;;;;24.98;35.40;101008.98;2291521;76;50667;-76
2023/06/15 12:50:39;;;;;;;;;;;;;;;24.98;35.40;101007.10;2294002;76;50974;-77
2023/06/15 12:53:40;;;;;;;;;;;;;;;24.98;35.38;101007.10;2322781;76;50696;-76
2023/06/15 12:56:42;;;;;;;;;;;;;;;24.97;35.40;100998.69;2322367;76;50257;-76
2023/06/15 12:59:45;;;;;;;;;;;;;;;24.96;35.48;101009.72;2280533;76;52652;-76
2023/06/15 13:02:46;;;;;;;;;;;;;;;24.94;35.49;100996.92;2267187;76;51524;-76
2023/06/15 13:05:48;;;;;;;;;;;;;;;24.98;35.47;101006.28;2322710;76;50633;-76
2023/06/15 13:08:50;;;;;;;;;;;;;;;24.97;35.47;101001.39;2292549;76;50510;-77
2023/06/15 13:11:51;;;;;;;;;;;;;;;24.96;35.46;100996.19;2289149;76;49966;-77
2023/06/15 13:14:53;;;;;;;;;;;;;;;24.95;35.47;100994.53;2293626;76;50111;-77
2023/06/15 13:17:55;;;;;;;;;;;;;;;24.96;35.47;100997.01;2326760;75;50635;-77
2023/06/15 13:21:01;;;;;;;;;;;;;;;24.95;35.48;100992.66;2313020;76;51366;-76
2023/06/15 13:24:00;;;;;;;;;;;;;;;24.95;35.45;100988.59;2320841;76;22341;-77
2023/06/15 13:27:02;;;;;;;;;;;;;;;24.95;35.45;100985.06;2294569;76;51400;-76
2023/06/15 13:30:06;;;;;;;;;;;;;;;24.93;35.50;100987.15;2294593;76;51520;-77
2023/06/15 13:33:07;;;;;;;;;;;;;;;24.93;35.54;100991.21;2319488;75;50324;-77
2023/06/15 13:36:09;;;;;;;;;;;;;;;24.94;35.56;100988.80;2291477;75;51182;-77
2023/06/15 13:39:13;;;;;;;;;;;;;;;24.93;35.60;100992.03;2323149;76;50706;-77
2023/06/15 13:42:14;;;;;;;;;;;;;;;24.96;35.54;100989.41;2322946;75;21789;-77
2023/06/15 13:45:21;;;;;;;;;;;;;;;24.96;35.52;101000.24;2291681;76;50042;-77
2023/06/15 13:48:22;;;;;;;;;;;;;;;24.95;35.55;100992.66;2323240;76;22915;-77
2023/06/15 13:51:25;;;;;;;;;;;;;;;24.95;35.55;100985.89;2323469;75;50370;-77
2023/06/15 13:54:27;;;;;;;;;;;;;;;24.95;35.56;100979.12;2323426;76;50715;-77
2023/06/15 13:57:29;;;;;;;;;;;;;;;24.96;35.57;100978.59;2323431;76;49986;-77
2023/06/15 14:00:32;;;;;;;;;;;;;;;24.95;35.60;100968.29;2323485;76;51616;-77
2023/06/15 14:03:33;;;;;;;;;;;;;;;24.95;35.62;100968.81;2269278;76;50963;-77
2023/06/15 14:06:37;;;;;;;;;;;;;;;24.93;35.65;100962.78;2323082;75;50786;-77
2023/06/15 14:09:39;;;;;;;;;;;;;;;24.91;35.66;100957.58;2323138;76;50657;-77
2023/06/15 14:12:40;;;;;;;;;;;;;;;24.93;35.66;100962.25;2289622;76;49337;-77
2023/06/15 14:15:42;;;;;;;;;;;;;;;24.92;35.71;100952.48;2323122;76;50636;-77
2023/06/15 14:18:43;;;;;;;;;;;;;;;24.92;35.74;100956.55;2322772;76;51012;-77
2023/06/15 14:21:45;;;;;;;;;;;;;;;24.92;35.79;100948.92;2323071;76;50254;-78
2023/06/15 14:24:47;;;;;;;;;;;;;;;24.93;35.78;100947.37;2294184;76;50137;-77
2023/06/15 14:27:48;;;;;;;;;;;;;;;24.93;35.81;100955.48;2322464;76;49919;-77
2023/06/15 14:30:50;;;;;;;;;;;;;;;24.92;35.80;100963.31;2322736;76;50629;-77
2023/06/15 14:33:51;;;;;;;;;;;;;;;24.95;35.72;100975.59;2323771;76;50636;-77
2023/06/15 14:36:53;;;;;;;;;;;;;;;24.92;35.76;100982.27;2294023;76;51550;-77
2023/06/15 14:39:54;;;;;;;;;;;;;;;24.93;35.77;100978.50;2323475;76;50611;-77
2023/06/15 14:42:56;;;;;;;;;;;;;;;24.93;35.76;100983.91;2317236;75;51329;-77
2023/06/15 14:45:58;;;;;;;;;;;;;;;24.94;35.75;100980.67;2298399;76;51441;-77
2023/06/15 14:49:02;;;;;;;;;;;;;;;24.93;35.79;100981.73;2254082;77;51726;-77
2023/06/15 14:52:03;;;;;;;;;;;;;;;24.92;35.84;100986.33;2279931;77;50699;-77
2023/06/15 14:55:05;;;;;;;;;;;;;;;24.93;35.85;100977.67;2280459;77;50675;-77
2023/06/15 14:58:07;;;;;;;;;;;;;;;24.92;35.80;100974.14;2298867;76;50620;-77
2023/06/15 15:01:08;;;;;;;;;;;;;;;24.94;35.81;100975.27;2299820;77;50419;-78
2023/06/15 15:04:10;;;;;;;;;;;;;;;24.93;35.83;100982.56;2298853;76;51511;-78
2023/06/15 15:07:12;;;;;;;;;;;;;;;24.94;35.92;100982.85;2298458;76;51453;-77
2023/06/15 15:10:13;;;;;;;;;;;;;;;24.93;35.90;100979.03;2280702;75;51562;-78
2023/06/15 15:13:15;;;;;;;;;;;;;;;24.93;35.91;100977.14;2316366;76;51703;-78
2023/06/15 15:16:18;;;;;;;;;;;;;;;24.93;35.97;100969.55;2323674;76;50767;-77
2023/06/15 15:19:20;;;;;;;;;;;;;;;24.91;36.03;100968.41;2295656;76;24622;-77
2023/06/15 15:22:21;;;;;;;;;;;;;;;24.91;36.06;100964.34;2294503;76;50632;-77
2023/06/15 15:25:23;;;;;;;;;;;;;;;24.91;36.11;100961.64;2323807;76;51476;-77
2023/06/15 15:28:25;;;;;;;;;;;;;;;24.92;36.06;100959.75;2294965;76;51475;-77
2023/06/15 15:31:27;;;;;;;;;;;;;;;24.90;36.14;100954.58;2323708;76;50793;-77
2023/06/15 15:34:28;;;;;;;;;;;;;;;24.90;36.18;100964.05;2323699;76;50609;-77
2023/06/15 15:37:30;;;;;;;;;;;;;;;24.91;36.26;100962.99;2251465;76;51674;-77